sensor_id;sensor_type;location;lat;lon;timestamp;P1;durP1;ratioP1;P2;durP2;ratioP2
82265;SDS011;71866;53.340;-6.308;2024-03-23T00:52:55;6.18;;;1.30;;
82265;SDS011;71866;53.340;-6.308;2024-03-23T00:55:20;6.27;;;1.50;;
82265;SDS011;71866;53.340;-6.308;2024-03-23T00:57:46;6.57;;;1.33;;
82265;SDS011;71866;53.340;-6.308;2024-03-23T01:00:13;6.47;;;1.33;;
82265;SDS011;71866;53.340;-6.308;2024-03-23T01:02:38;5.20;;;1.33;;
82265;SDS011;71866;53.340;-6.308;2024-03-23T01:05:05;7.18;;;1.20;;
82265;SDS011;71866;53.340;-6.308;2024-03-23T01:07:31;6.43;;;1.50;;
82265;SDS011;71866;53.340;-6.308;2024-03-23T01:09:57;6.30;;;1.53;;
82265;SDS011;71866;53.340;-6.308;2024-03-23T01:12:23;5.90;;;1.40;;
82265;SDS011;71866;53.340;-6.308;2024-03-23T01:14:49;5.27;;;1.40;;
82265;SDS011;71866;53.340;-6.308;2024-03-23T01:17:15;5.80;;;1.20;;
82265;SDS011;71866;53.340;-6.308;2024-03-23T01:19:41;5.73;;;1.20;;
82265;SDS011;71866;53.340;-6.308;2024-03-23T01:22:07;8.15;;;1.42;;
82265;SDS011;71866;53.340;-6.308;2024-03-23T01:24:33;8.07;;;1.57;;
82265;SDS011;71866;53.340;-6.308;2024-03-23T01:26:58;8.13;;;1.30;;
82265;SDS011;71866;53.340;-6.308;2024-03-23T01:29:24;7.55;;;1.50;;
82265;SDS011;71866;53.340;-6.308;2024-03-23T01:31:51;5.33;;;1.63;;
82265;SDS011;71866;53.340;-6.308;2024-03-23T01:34:19;6.97;;;1.50;;
82265;SDS011;71866;53.340;-6.308;2024-03-23T01:36:44;7.07;;;1.37;;
82265;SDS011;71866;53.340;-6.308;2024-03-23T01:39:10;4.87;;;1.63;;
82265;SDS011;71866;53.340;-6.308;2024-03-23T01:41:36;8.10;;;1.75;;
82265;SDS011;71866;53.340;-6.308;2024-03-23T01:44:04;8.40;;;1.60;;
82265;SDS011;71866;53.340;-6.308;2024-03-23T01:46:32;8.13;;;1.48;;
82265;SDS011;71866;53.340;-6.308;2024-03-23T01:48:59;5.55;;;1.30;;
82265;SDS011;71866;53.340;-6.308;2024-03-23T01:51:24;7.23;;;1.40;;
82265;SDS011;71866;53.340;-6.308;2024-03-23T01:53:51;7.82;;;1.38;;
82265;SDS011;71866;53.340;-6.308;2024-03-23T01:56:17;5.88;;;1.23;;
82265;SDS011;71866;53.340;-6.308;2024-03-23T01:58:43;7.97;;;1.27;;
82265;SDS011;71866;53.340;-6.308;2024-03-23T02:01:10;6.53;;;1.30;;
82265;SDS011;71866;53.340;-6.308;2024-03-23T02:03:35;6.97;;;1.50;;
82265;SDS011;71866;53.340;-6.308;2024-03-23T02:06:02;7.97;;;1.30;;
82265;SDS011;71866;53.340;-6.308;2024-03-23T02:08:27;5.63;;;1.30;;
82265;SDS011;71866;53.340;-6.308;2024-03-23T02:10:53;9.00;;;1.43;;
82265;SDS011;71866;53.340;-6.308;2024-03-23T02:13:19;10.00;;;1.65;;
82265;SDS011;71866;53.340;-6.308;2024-03-23T02:15:45;9.13;;;1.50;;
82265;SDS011;71866;53.340;-6.308;2024-03-23T02:18:10;8.03;;;1.53;;
82265;SDS011;71866;53.340;-6.308;2024-03-23T02:20:38;7.90;;;1.50;;
82265;SDS011;71866;53.340;-6.308;2024-03-23T02:23:04;10.33;;;1.60;;
82265;SDS011;71866;53.340;-6.308;2024-03-23T02:25:30;7.03;;;1.48;;
82265;SDS011;71866;53.340;-6.308;2024-03-23T02:27:55;6.97;;;1.35;;
82265;SDS011;71866;53.340;-6.308;2024-03-23T02:30:22;7.80;;;1.75;;
82265;SDS011;71866;53.340;-6.308;2024-03-23T02:32:47;7.25;;;1.42;;
82265;SDS011;71866;53.340;-6.308;2024-03-23T02:35:14;5.38;;;1.33;;
82265;SDS011;71866;53.340;-6.308;2024-03-23T02:37:39;6.40;;;1.55;;
82265;SDS011;71866;53.340;-6.308;2024-03-23T02:40:06;6.20;;;1.52;;
82265;SDS011;71866;53.340;-6.308;2024-03-23T02:42:32;6.20;;;1.30;;
82265;SDS011;71866;53.340;-6.308;2024-03-23T02:44:58;9.50;;;1.45;;
82265;SDS011;71866;53.340;-6.308;2024-03-23T02:47:23;9.27;;;1.92;;
82265;SDS011;71866;53.340;-6.308;2024-03-23T02:49:50;7.43;;;1.33;;
82265;SDS011;71866;53.340;-6.308;2024-03-23T02:52:15;8.80;;;1.50;;
82265;SDS011;71866;53.340;-6.308;2024-03-23T02:54:41;7.50;;;1.77;;
82265;SDS011;71866;53.340;-6.308;2024-03-23T02:57:07;8.05;;;1.40;;
82265;SDS011;71866;53.340;-6.308;2024-03-23T02:59:34;7.60;;;1.60;;
82265;SDS011;71866;53.340;-6.308;2024-03-23T03:02:00;8.80;;;1.70;;
82265;SDS011;71866;53.340;-6.308;2024-03-23T03:04:25;5.73;;;1.17;;
82265;SDS011;71866;53.340;-6.308;2024-03-23T03:06:51;7.27;;;1.57;;
82265;SDS011;71866;53.340;-6.308;2024-03-23T03:09:17;8.57;;;1.57;;
82265;SDS011;71866;53.340;-6.308;2024-03-23T03:11:43;6.43;;;1.33;;
82265;SDS011;71866;53.340;-6.308;2024-03-23T03:14:09;7.88;;;1.40;;
82265;SDS011;71866;53.340;-6.308;2024-03-23T03:16:35;8.23;;;1.50;;
82265;SDS011;71866;53.340;-6.308;2024-03-23T03:19:00;8.90;;;1.63;;
82265;SDS011;71866;53.340;-6.308;2024-03-23T03:21:26;9.75;;;1.70;;
82265;SDS011;71866;53.340;-6.308;2024-03-23T03:23:52;7.70;;;1.50;;
82265;SDS011;71866;53.340;-6.308;2024-03-23T03:26:18;9.13;;;1.67;;
82265;SDS011;71866;53.340;-6.308;2024-03-23T03:28:44;10.17;;;1.73;;
82265;SDS011;71866;53.340;-6.308;2024-03-23T03:31:10;8.52;;;1.80;;
82265;SDS011;71866;53.340;-6.308;2024-03-23T03:33:36;9.40;;;1.70;;
82265;SDS011;71866;53.340;-6.308;2024-03-23T03:36:01;6.87;;;1.70;;
82265;SDS011;71866;53.340;-6.308;2024-03-23T03:38:27;10.70;;;1.50;;
82265;SDS011;71866;53.340;-6.308;2024-03-23T03:40:53;6.03;;;1.50;;
82265;SDS011;71866;53.340;-6.308;2024-03-23T03:43:19;8.73;;;1.70;;
82265;SDS011;71866;53.340;-6.308;2024-03-23T03:45:56;7.65;;;1.42;;
82265;SDS011;71866;53.340;-6.308;2024-03-23T03:48:21;6.85;;;1.50;;
82265;SDS011;71866;53.340;-6.308;2024-03-23T03:50:48;8.20;;;1.33;;
82265;SDS011;71866;53.340;-6.308;2024-03-23T03:53:13;9.00;;;1.40;;
82265;SDS011;71866;53.340;-6.308;2024-03-23T03:55:40;6.22;;;1.40;;
82265;SDS011;71866;53.340;-6.308;2024-03-23T03:58:05;7.82;;;1.48;;
82265;SDS011;71866;53.340;-6.308;2024-03-23T04:00:31;6.68;;;1.33;;
82265;SDS011;71866;53.340;-6.308;2024-03-23T04:02:57;6.18;;;1.20;;
82265;SDS011;71866;53.340;-6.308;2024-03-23T04:05:23;7.80;;;1.30;;
82265;SDS011;71866;53.340;-6.308;2024-03-23T04:07:49;7.13;;;1.80;;
82265;SDS011;71866;53.340;-6.308;2024-03-23T04:10:15;7.70;;;1.20;;
82265;SDS011;71866;53.340;-6.308;2024-03-23T04:12:42;6.07;;;1.42;;
82265;SDS011;71866;53.340;-6.308;2024-03-23T04:15:08;5.32;;;1.48;;
82265;SDS011;71866;53.340;-6.308;2024-03-23T04:17:33;5.77;;;1.37;;
82265;SDS011;71866;53.340;-6.308;2024-03-23T04:20:00;7.22;;;1.35;;
82265;SDS011;71866;53.340;-6.308;2024-03-23T04:22:26;9.10;;;1.48;;
82265;SDS011;71866;53.340;-6.308;2024-03-23T04:24:53;7.82;;;1.50;;
82265;SDS011;71866;53.340;-6.308;2024-03-23T04:27:19;6.07;;;1.15;;
82265;SDS011;71866;53.340;-6.308;2024-03-23T04:29:47;7.77;;;1.63;;
82265;SDS011;71866;53.340;-6.308;2024-03-23T04:32:14;7.07;;;1.38;;
82265;SDS011;71866;53.340;-6.308;2024-03-23T04:34:40;8.27;;;1.60;;
82265;SDS011;71866;53.340;-6.308;2024-03-23T04:37:06;7.85;;;1.50;;
82265;SDS011;71866;53.340;-6.308;2024-03-23T04:39:31;7.20;;;1.20;;
82265;SDS011;71866;53.340;-6.308;2024-03-23T04:41:59;8.43;;;1.30;;
82265;SDS011;71866;53.340;-6.308;2024-03-23T04:44:24;9.33;;;1.53;;
82265;SDS011;71866;53.340;-6.308;2024-03-23T04:46:51;7.20;;;1.27;;
82265;SDS011;71866;53.340;-6.308;2024-03-23T04:49:17;6.32;;;1.42;;
82265;SDS011;71866;53.340;-6.308;2024-03-23T04:51:43;7.13;;;1.50;;
82265;SDS011;71866;53.340;-6.308;2024-03-23T04:54:09;9.32;;;1.80;;
82265;SDS011;71866;53.340;-6.308;2024-03-23T04:56:34;7.30;;;1.58;;
82265;SDS011;71866;53.340;-6.308;2024-03-23T04:59:01;7.82;;;1.40;;
82265;SDS011;71866;53.340;-6.308;2024-03-23T05:01:27;8.18;;;1.63;;
82265;SDS011;71866;53.340;-6.308;2024-03-23T05:03:52;8.60;;;1.52;;
82265;SDS011;71866;53.340;-6.308;2024-03-23T05:06:19;7.07;;;1.40;;
82265;SDS011;71866;53.340;-6.308;2024-03-23T05:08:44;8.80;;;1.50;;
82265;SDS011;71866;53.340;-6.308;2024-03-23T05:11:10;9.03;;;1.50;;
82265;SDS011;71866;53.340;-6.308;2024-03-23T05:13:36;5.75;;;1.27;;
82265;SDS011;71866;53.340;-6.308;2024-03-23T05:16:03;9.90;;;1.80;;
82265;SDS011;71866;53.340;-6.308;2024-03-23T05:18:28;7.13;;;1.40;;
82265;SDS011;71866;53.340;-6.308;2024-03-23T05:20:57;9.03;;;1.70;;
82265;SDS011;71866;53.340;-6.308;2024-03-23T05:23:24;6.30;;;1.70;;
82265;SDS011;71866;53.340;-6.308;2024-03-23T05:25:49;8.87;;;1.60;;
82265;SDS011;71866;53.340;-6.308;2024-03-23T05:28:16;8.32;;;1.35;;
82265;SDS011;71866;53.340;-6.308;2024-03-23T05:30:42;7.47;;;1.30;;
82265;SDS011;71866;53.340;-6.308;2024-03-23T05:33:08;7.33;;;1.57;;
82265;SDS011;71866;53.340;-6.308;2024-03-23T05:35:34;7.65;;;1.40;;
82265;SDS011;71866;53.340;-6.308;2024-03-23T05:38:00;9.10;;;1.67;;
82265;SDS011;71866;53.340;-6.308;2024-03-23T05:40:26;5.72;;;1.38;;
82265;SDS011;71866;53.340;-6.308;2024-03-23T05:42:52;7.43;;;1.37;;
82265;SDS011;71866;53.340;-6.308;2024-03-23T05:45:17;7.23;;;1.57;;
82265;SDS011;71866;53.340;-6.308;2024-03-23T05:47:44;9.07;;;1.60;;
82265;SDS011;71866;53.340;-6.308;2024-03-23T05:50:09;7.33;;;1.43;;
82265;SDS011;71866;53.340;-6.308;2024-03-23T05:52:36;11.05;;;1.75;;
82265;SDS011;71866;53.340;-6.308;2024-03-23T05:55:01;8.85;;;1.40;;
82265;SDS011;71866;53.340;-6.308;2024-03-23T05:57:28;7.70;;;1.40;;
82265;SDS011;71866;53.340;-6.308;2024-03-23T05:59:53;8.40;;;1.60;;
82265;SDS011;71866;53.340;-6.308;2024-03-23T06:02:20;9.35;;;1.67;;
82265;SDS011;71866;53.340;-6.308;2024-03-23T06:04:45;7.70;;;1.37;;
82265;SDS011;71866;53.340;-6.308;2024-03-23T06:07:11;6.35;;;1.60;;
82265;SDS011;71866;53.340;-6.308;2024-03-23T06:09:37;8.82;;;1.40;;
82265;SDS011;71866;53.340;-6.308;2024-03-23T06:12:03;6.90;;;1.40;;
82265;SDS011;71866;53.340;-6.308;2024-03-23T06:14:29;8.20;;;1.30;;
82265;SDS011;71866;53.340;-6.308;2024-03-23T06:16:55;6.80;;;1.33;;
82265;SDS011;71866;53.340;-6.308;2024-03-23T06:19:21;7.70;;;1.45;;
82265;SDS011;71866;53.340;-6.308;2024-03-23T06:21:48;9.35;;;1.75;;
82265;SDS011;71866;53.340;-6.308;2024-03-23T06:24:13;5.23;;;1.20;;
82265;SDS011;71866;53.340;-6.308;2024-03-23T06:26:39;5.65;;;1.35;;
82265;SDS011;71866;53.340;-6.308;2024-03-23T06:29:05;6.13;;;1.37;;
82265;SDS011;71866;53.340;-6.308;2024-03-23T06:31:31;7.57;;;1.38;;
82265;SDS011;71866;53.340;-6.308;2024-03-23T06:33:57;4.88;;;1.02;;
82265;SDS011;71866;53.340;-6.308;2024-03-23T06:36:22;7.78;;;1.30;;
82265;SDS011;71866;53.340;-6.308;2024-03-23T06:38:49;7.97;;;1.42;;
82265;SDS011;71866;53.340;-6.308;2024-03-23T06:41:14;6.83;;;1.40;;
82265;SDS011;71866;53.340;-6.308;2024-03-23T06:43:41;6.40;;;1.38;;
82265;SDS011;71866;53.340;-6.308;2024-03-23T06:46:06;7.90;;;1.47;;
82265;SDS011;71866;53.340;-6.308;2024-03-23T06:48:32;6.80;;;1.30;;
82265;SDS011;71866;53.340;-6.308;2024-03-23T06:50:59;9.35;;;1.30;;
82265;SDS011;71866;53.340;-6.308;2024-03-23T06:53:25;7.43;;;1.50;;
82265;SDS011;71866;53.340;-6.308;2024-03-23T06:55:51;5.60;;;1.10;;
82265;SDS011;71866;53.340;-6.308;2024-03-23T06:58:18;7.95;;;1.60;;
82265;SDS011;71866;53.340;-6.308;2024-03-23T07:00:44;7.20;;;1.40;;
82265;SDS011;71866;53.340;-6.308;2024-03-23T07:03:10;7.82;;;1.50;;
82265;SDS011;71866;53.340;-6.308;2024-03-23T07:05:36;5.47;;;1.20;;
82265;SDS011;71866;53.340;-6.308;2024-03-23T07:08:02;7.05;;;1.48;;
82265;SDS011;71866;53.340;-6.308;2024-03-23T07:10:27;9.05;;;1.52;;
82265;SDS011;71866;53.340;-6.308;2024-03-23T07:12:53;6.07;;;1.20;;
82265;SDS011;71866;53.340;-6.308;2024-03-23T07:15:19;8.15;;;1.50;;
82265;SDS011;71866;53.340;-6.308;2024-03-23T07:17:47;10.90;;;1.60;;
82265;SDS011;71866;53.340;-6.308;2024-03-23T07:20:14;7.03;;;1.45;;
82265;SDS011;71866;53.340;-6.308;2024-03-23T07:22:40;8.77;;;1.40;;
82265;SDS011;71866;53.340;-6.308;2024-03-23T07:25:06;8.77;;;1.37;;
82265;SDS011;71866;53.340;-6.308;2024-03-23T07:27:32;6.47;;;1.40;;
82265;SDS011;71866;53.340;-6.308;2024-03-23T07:29:58;8.02;;;1.30;;
82265;SDS011;71866;53.340;-6.308;2024-03-23T07:32:23;7.85;;;1.42;;
82265;SDS011;71866;53.340;-6.308;2024-03-23T07:34:50;9.63;;;1.60;;
82265;SDS011;71866;53.340;-6.308;2024-03-23T07:37:15;6.95;;;1.50;;
82265;SDS011;71866;53.340;-6.308;2024-03-23T07:39:41;7.65;;;1.52;;
82265;SDS011;71866;53.340;-6.308;2024-03-23T07:42:07;6.60;;;1.25;;
82265;SDS011;71866;53.340;-6.308;2024-03-23T07:44:33;8.10;;;1.70;;
82265;SDS011;71866;53.340;-6.308;2024-03-23T07:47:00;6.37;;;1.27;;
82265;SDS011;71866;53.340;-6.308;2024-03-23T07:49:26;9.57;;;1.70;;
82265;SDS011;71866;53.340;-6.308;2024-03-23T07:51:52;8.50;;;1.70;;
82265;SDS011;71866;53.340;-6.308;2024-03-23T07:54:18;5.00;;;1.23;;
82265;SDS011;71866;53.340;-6.308;2024-03-23T07:56:44;6.43;;;1.45;;
82265;SDS011;71866;53.340;-6.308;2024-03-23T07:59:11;7.25;;;1.45;;
82265;SDS011;71866;53.340;-6.308;2024-03-23T08:01:36;8.68;;;1.45;;
82265;SDS011;71866;53.340;-6.308;2024-03-23T08:04:03;7.88;;;1.42;;
82265;SDS011;71866;53.340;-6.308;2024-03-23T08:06:28;7.45;;;1.35;;
82265;SDS011;71866;53.340;-6.308;2024-03-23T08:08:55;9.52;;;1.70;;
82265;SDS011;71866;53.340;-6.308;2024-03-23T08:11:21;8.93;;;1.37;;
82265;SDS011;71866;53.340;-6.308;2024-03-23T08:13:47;8.52;;;1.45;;
82265;SDS011;71866;53.340;-6.308;2024-03-23T08:16:13;7.90;;;1.50;;
82265;SDS011;71866;53.340;-6.308;2024-03-23T08:18:38;6.20;;;1.13;;
82265;SDS011;71866;53.340;-6.308;2024-03-23T08:21:05;7.90;;;1.60;;
82265;SDS011;71866;53.340;-6.308;2024-03-23T08:23:32;6.05;;;1.10;;
82265;SDS011;71866;53.340;-6.308;2024-03-23T08:25:58;7.38;;;1.10;;
82265;SDS011;71866;53.340;-6.308;2024-03-23T08:28:25;6.28;;;1.15;;
82265;SDS011;71866;53.340;-6.308;2024-03-23T08:30:51;6.13;;;1.10;;
82265;SDS011;71866;53.340;-6.308;2024-03-23T08:33:18;6.32;;;1.30;;
82265;SDS011;71866;53.340;-6.308;2024-03-23T08:35:52;4.43;;;1.10;;
82265;SDS011;71866;53.340;-6.308;2024-03-23T08:38:19;5.90;;;1.33;;
82265;SDS011;71866;53.340;-6.308;2024-03-23T08:40:44;5.13;;;1.17;;
82265;SDS011;71866;53.340;-6.308;2024-03-23T08:43:10;6.83;;;1.37;;
82265;SDS011;71866;53.340;-6.308;2024-03-23T08:45:36;7.70;;;1.52;;
82265;SDS011;71866;53.340;-6.308;2024-03-23T08:48:02;7.67;;;1.30;;
82265;SDS011;71866;53.340;-6.308;2024-03-23T08:50:28;4.80;;;1.17;;
82265;SDS011;71866;53.340;-6.308;2024-03-23T08:52:54;5.20;;;1.23;;
82265;SDS011;71866;53.340;-6.308;2024-03-23T08:55:21;5.05;;;1.27;;
82265;SDS011;71866;53.340;-6.308;2024-03-23T08:57:46;4.63;;;1.10;;
82265;SDS011;71866;53.340;-6.308;2024-03-23T09:00:12;7.50;;;1.20;;
82265;SDS011;71866;53.340;-6.308;2024-03-23T09:02:39;4.15;;;1.20;;
82265;SDS011;71866;53.340;-6.308;2024-03-23T09:05:04;4.97;;;1.10;;
82265;SDS011;71866;53.340;-6.308;2024-03-23T09:07:31;4.53;;;1.00;;
82265;SDS011;71866;53.340;-6.308;2024-03-23T09:09:56;5.40;;;1.33;;
82265;SDS011;71866;53.340;-6.308;2024-03-23T09:12:23;7.15;;;1.10;;
82265;SDS011;71866;53.340;-6.308;2024-03-23T09:14:49;4.40;;;0.90;;
82265;SDS011;71866;53.340;-6.308;2024-03-23T09:17:16;6.45;;;1.30;;
82265;SDS011;71866;53.340;-6.308;2024-03-23T09:19:41;5.27;;;1.30;;
82265;SDS011;71866;53.340;-6.308;2024-03-23T09:22:08;4.45;;;1.15;;
82265;SDS011;71866;53.340;-6.308;2024-03-23T09:24:34;8.30;;;1.50;;
82265;SDS011;71866;53.340;-6.308;2024-03-23T09:27:00;4.47;;;0.90;;
82265;SDS011;71866;53.340;-6.308;2024-03-23T09:29:26;6.40;;;1.10;;
82265;SDS011;71866;53.340;-6.308;2024-03-23T09:31:52;5.45;;;1.23;;
82265;SDS011;71866;53.340;-6.308;2024-03-23T09:34:18;5.97;;;1.10;;
82265;SDS011;71866;53.340;-6.308;2024-03-23T09:36:44;4.70;;;0.80;;
82265;SDS011;71866;53.340;-6.308;2024-03-23T09:39:10;4.72;;;0.93;;
82265;SDS011;71866;53.340;-6.308;2024-03-23T09:41:36;5.65;;;1.08;;
82265;SDS011;71866;53.340;-6.308;2024-03-23T09:44:03;4.60;;;1.10;;
82265;SDS011;71866;53.340;-6.308;2024-03-23T09:46:30;2.65;;;0.70;;
82265;SDS011;71866;53.340;-6.308;2024-03-23T09:48:55;5.27;;;0.97;;
82265;SDS011;71866;53.340;-6.308;2024-03-23T09:51:22;4.30;;;0.70;;
82265;SDS011;71866;53.340;-6.308;2024-03-23T09:53:49;3.55;;;0.90;;
82265;SDS011;71866;53.340;-6.308;2024-03-23T09:56:16;3.17;;;0.68;;
82265;SDS011;71866;53.340;-6.308;2024-03-23T09:58:41;3.73;;;0.80;;
82265;SDS011;71866;53.340;-6.308;2024-03-23T10:01:08;3.55;;;0.60;;
82265;SDS011;71866;53.340;-6.308;2024-03-23T10:03:41;2.85;;;0.70;;
82265;SDS011;71866;53.340;-6.308;2024-03-23T10:06:07;1.40;;;0.63;;
82265;SDS011;71866;53.340;-6.308;2024-03-23T10:08:33;3.37;;;0.60;;
82265;SDS011;71866;53.340;-6.308;2024-03-23T10:10:59;3.53;;;0.60;;
82265;SDS011;71866;53.340;-6.308;2024-03-23T10:13:40;3.05;;;0.70;;
82265;SDS011;71866;53.340;-6.308;2024-03-23T10:16:06;4.55;;;0.55;;
82265;SDS011;71866;53.340;-6.308;2024-03-23T10:18:31;3.80;;;0.70;;
82265;SDS011;71866;53.340;-6.308;2024-03-23T10:23:35;3.77;;;1.10;;
82265;SDS011;71866;53.340;-6.308;2024-03-23T10:28:58;3.97;;;0.90;;
82265;SDS011;71866;53.340;-6.308;2024-03-23T10:31:24;5.68;;;0.82;;
82265;SDS011;71866;53.340;-6.308;2024-03-23T10:33:50;4.53;;;0.90;;
82265;SDS011;71866;53.340;-6.308;2024-03-23T10:36:16;4.80;;;0.90;;
82265;SDS011;71866;53.340;-6.308;2024-03-23T10:38:43;4.50;;;0.98;;
82265;SDS011;71866;53.340;-6.308;2024-03-23T10:41:10;3.70;;;0.93;;
82265;SDS011;71866;53.340;-6.308;2024-03-23T10:43:37;4.38;;;0.90;;
82265;SDS011;71866;53.340;-6.308;2024-03-23T10:46:03;4.38;;;0.90;;
82265;SDS011;71866;53.340;-6.308;2024-03-23T10:48:29;5.38;;;1.25;;
82265;SDS011;71866;53.340;-6.308;2024-03-23T10:50:55;4.40;;;1.00;;
82265;SDS011;71866;53.340;-6.308;2024-03-23T10:53:21;4.37;;;0.80;;
82265;SDS011;71866;53.340;-6.308;2024-03-23T10:55:48;4.93;;;1.00;;
82265;SDS011;71866;53.340;-6.308;2024-03-23T10:58:14;7.28;;;1.48;;
82265;SDS011;71866;53.340;-6.308;2024-03-23T11:00:41;4.90;;;1.05;;
82265;SDS011;71866;53.340;-6.308;2024-03-23T11:05:52;4.13;;;0.90;;
82265;SDS011;71866;53.340;-6.308;2024-03-23T11:08:30;3.93;;;1.10;;
82265;SDS011;71866;53.340;-6.308;2024-03-23T11:13:37;6.93;;;1.60;;
82265;SDS011;71866;53.340;-6.308;2024-03-23T11:16:14;7.55;;;1.30;;
82265;SDS011;71866;53.340;-6.308;2024-03-23T11:18:40;7.10;;;1.40;;
82265;SDS011;71866;53.340;-6.308;2024-03-23T11:21:09;8.27;;;1.77;;
82265;SDS011;71866;53.340;-6.308;2024-03-23T11:23:36;6.57;;;1.38;;
82265;SDS011;71866;53.340;-6.308;2024-03-23T11:26:01;6.43;;;1.70;;
82265;SDS011;71866;53.340;-6.308;2024-03-23T11:28:28;5.85;;;1.35;;
82265;SDS011;71866;53.340;-6.308;2024-03-23T11:30:53;6.10;;;1.00;;
82265;SDS011;71866;53.340;-6.308;2024-03-23T11:33:19;6.90;;;1.48;;
82265;SDS011;71866;53.340;-6.308;2024-03-23T11:35:45;7.00;;;1.45;;
82265;SDS011;71866;53.340;-6.308;2024-03-23T11:38:14;7.40;;;1.40;;
82265;SDS011;71866;53.340;-6.308;2024-03-23T11:40:41;6.10;;;1.35;;
82265;SDS011;71866;53.340;-6.308;2024-03-23T11:43:08;5.07;;;1.00;;
82265;SDS011;71866;53.340;-6.308;2024-03-23T11:45:37;5.20;;;1.30;;
82265;SDS011;71866;53.340;-6.308;2024-03-23T11:48:14;5.23;;;1.63;;
82265;SDS011;71866;53.340;-6.308;2024-03-23T11:50:40;6.78;;;1.35;;
82265;SDS011;71866;53.340;-6.308;2024-03-23T11:53:17;3.97;;;1.10;;
82265;SDS011;71866;53.340;-6.308;2024-03-23T11:55:58;6.78;;;1.50;;
82265;SDS011;71866;53.340;-6.308;2024-03-23T11:58:25;6.97;;;1.50;;
82265;SDS011;71866;53.340;-6.308;2024-03-23T12:01:12;7.10;;;1.50;;
82265;SDS011;71866;53.340;-6.308;2024-03-23T12:03:38;8.38;;;1.88;;
82265;SDS011;71866;53.340;-6.308;2024-03-23T12:06:03;9.50;;;1.50;;
82265;SDS011;71866;53.340;-6.308;2024-03-23T12:08:33;9.60;;;1.73;;
82265;SDS011;71866;53.340;-6.308;2024-03-23T12:11:10;9.80;;;1.83;;
82265;SDS011;71866;53.340;-6.308;2024-03-23T12:13:36;11.07;;;1.90;;
82265;SDS011;71866;53.340;-6.308;2024-03-23T12:16:12;8.38;;;1.70;;
82265;SDS011;71866;53.340;-6.308;2024-03-23T12:18:38;8.40;;;1.70;;
82265;SDS011;71866;53.340;-6.308;2024-03-23T12:21:06;9.65;;;2.05;;
82265;SDS011;71866;53.340;-6.308;2024-03-23T12:23:31;8.03;;;1.40;;
82265;SDS011;71866;53.340;-6.308;2024-03-23T12:25:57;8.80;;;1.50;;
82265;SDS011;71866;53.340;-6.308;2024-03-23T12:28:23;7.38;;;1.58;;
82265;SDS011;71866;53.340;-6.308;2024-03-23T12:30:49;7.57;;;1.50;;
82265;SDS011;71866;53.340;-6.308;2024-03-23T12:33:15;9.63;;;1.65;;
82265;SDS011;71866;53.340;-6.308;2024-03-23T12:35:42;8.32;;;2.00;;
82265;SDS011;71866;53.340;-6.308;2024-03-23T12:38:07;5.77;;;1.53;;
82265;SDS011;71866;53.340;-6.308;2024-03-23T12:40:32;4.93;;;1.23;;
82265;SDS011;71866;53.340;-6.308;2024-03-23T12:42:59;5.80;;;1.60;;
82265;SDS011;71866;53.340;-6.308;2024-03-23T12:45:25;7.40;;;1.50;;
82265;SDS011;71866;53.340;-6.308;2024-03-23T12:47:51;8.40;;;1.67;;
82265;SDS011;71866;53.340;-6.308;2024-03-23T12:50:17;7.88;;;1.58;;
82265;SDS011;71866;53.340;-6.308;2024-03-23T12:52:44;9.30;;;1.70;;
82265;SDS011;71866;53.340;-6.308;2024-03-23T12:55:09;9.00;;;1.80;;
82265;SDS011;71866;53.340;-6.308;2024-03-23T12:57:36;8.38;;;1.58;;
82265;SDS011;71866;53.340;-6.308;2024-03-23T13:00:01;7.93;;;1.70;;
82265;SDS011;71866;53.340;-6.308;2024-03-23T13:02:28;10.20;;;1.47;;
82265;SDS011;71866;53.340;-6.308;2024-03-23T13:04:54;9.80;;;1.90;;
82265;SDS011;71866;53.340;-6.308;2024-03-23T13:07:21;9.35;;;1.75;;
82265;SDS011;71866;53.340;-6.308;2024-03-23T13:09:51;9.03;;;1.97;;
82265;SDS011;71866;53.340;-6.308;2024-03-23T13:12:16;9.63;;;2.20;;
82265;SDS011;71866;53.340;-6.308;2024-03-23T13:14:43;8.93;;;1.83;;
82265;SDS011;71866;53.340;-6.308;2024-03-23T13:17:08;9.93;;;2.20;;
82265;SDS011;71866;53.340;-6.308;2024-03-23T13:19:34;8.27;;;2.50;;
82265;SDS011;71866;53.340;-6.308;2024-03-23T13:22:00;7.60;;;1.60;;
82265;SDS011;71866;53.340;-6.308;2024-03-23T13:24:26;9.60;;;1.70;;
82265;SDS011;71866;53.340;-6.308;2024-03-23T13:26:53;7.43;;;1.47;;
82265;SDS011;71866;53.340;-6.308;2024-03-23T13:29:19;8.55;;;1.80;;
82265;SDS011;71866;53.340;-6.308;2024-03-23T13:31:46;9.73;;;2.00;;
82265;SDS011;71866;53.340;-6.308;2024-03-23T13:34:11;8.77;;;1.88;;
82265;SDS011;71866;53.340;-6.308;2024-03-23T13:36:38;10.73;;;2.10;;
82265;SDS011;71866;53.340;-6.308;2024-03-23T13:39:03;10.33;;;1.97;;
82265;SDS011;71866;53.340;-6.308;2024-03-23T13:41:29;9.07;;;2.00;;
82265;SDS011;71866;53.340;-6.308;2024-03-23T13:43:55;12.05;;;2.17;;
82265;SDS011;71866;53.340;-6.308;2024-03-23T13:46:22;9.77;;;1.90;;
82265;SDS011;71866;53.340;-6.308;2024-03-23T13:48:47;8.77;;;1.92;;
82265;SDS011;71866;53.340;-6.308;2024-03-23T13:51:14;6.07;;;1.60;;
82265;SDS011;71866;53.340;-6.308;2024-03-23T13:53:39;9.85;;;1.85;;
82265;SDS011;71866;53.340;-6.308;2024-03-23T13:56:04;9.73;;;1.90;;
82265;SDS011;71866;53.340;-6.308;2024-03-23T13:58:31;12.20;;;1.92;;
82265;SDS011;71866;53.340;-6.308;2024-03-23T14:00:57;9.32;;;2.00;;
82265;SDS011;71866;53.340;-6.308;2024-03-23T14:03:23;10.57;;;1.73;;
82265;SDS011;71866;53.340;-6.308;2024-03-23T14:05:49;10.23;;;2.08;;
82265;SDS011;71866;53.340;-6.308;2024-03-23T14:08:15;9.67;;;1.90;;
82265;SDS011;71866;53.340;-6.308;2024-03-23T14:10:40;8.57;;;2.00;;
82265;SDS011;71866;53.340;-6.308;2024-03-23T14:13:07;11.25;;;1.80;;
82265;SDS011;71866;53.340;-6.308;2024-03-23T14:15:32;5.50;;;1.43;;
82265;SDS011;71866;53.340;-6.308;2024-03-23T14:18:00;10.93;;;1.75;;
82265;SDS011;71866;53.340;-6.308;2024-03-23T14:20:25;8.80;;;1.70;;
82265;SDS011;71866;53.340;-6.308;2024-03-23T14:22:52;8.35;;;1.88;;
82265;SDS011;71866;53.340;-6.308;2024-03-23T14:25:17;10.00;;;2.22;;
82265;SDS011;71866;53.340;-6.308;2024-03-23T14:27:44;9.77;;;2.05;;
82265;SDS011;71866;53.340;-6.308;2024-03-23T14:30:11;9.17;;;2.00;;
82265;SDS011;71866;53.340;-6.308;2024-03-23T14:32:37;13.35;;;2.40;;
82265;SDS011;71866;53.340;-6.308;2024-03-23T14:35:02;9.68;;;2.10;;
82265;SDS011;71866;53.340;-6.308;2024-03-23T14:37:29;12.60;;;2.40;;
82265;SDS011;71866;53.340;-6.308;2024-03-23T14:39:58;10.33;;;2.40;;
82265;SDS011;71866;53.340;-6.308;2024-03-23T14:42:24;9.88;;;1.88;;
82265;SDS011;71866;53.340;-6.308;2024-03-23T14:44:50;10.38;;;1.88;;
82265;SDS011;71866;53.340;-6.308;2024-03-23T14:47:17;14.45;;;2.17;;
82265;SDS011;71866;53.340;-6.308;2024-03-23T14:49:43;9.73;;;1.90;;
82265;SDS011;71866;53.340;-6.308;2024-03-23T14:52:08;11.18;;;2.00;;
82265;SDS011;71866;53.340;-6.308;2024-03-23T14:54:35;11.48;;;2.47;;
82265;SDS011;71866;53.340;-6.308;2024-03-23T14:57:00;11.02;;;1.90;;
82265;SDS011;71866;53.340;-6.308;2024-03-23T14:59:26;10.25;;;2.00;;
82265;SDS011;71866;53.340;-6.308;2024-03-23T15:01:52;9.57;;;2.10;;
82265;SDS011;71866;53.340;-6.308;2024-03-23T15:04:19;9.93;;;2.13;;
82265;SDS011;71866;53.340;-6.308;2024-03-23T15:06:44;10.65;;;1.80;;
82265;SDS011;71866;53.340;-6.308;2024-03-23T15:09:10;13.40;;;2.00;;
82265;SDS011;71866;53.340;-6.308;2024-03-23T15:11:36;7.60;;;1.55;;
82265;SDS011;71866;53.340;-6.308;2024-03-23T15:14:01;8.73;;;2.03;;
82265;SDS011;71866;53.340;-6.308;2024-03-23T15:16:28;6.90;;;1.45;;
82265;SDS011;71866;53.340;-6.308;2024-03-23T15:18:53;9.70;;;1.60;;
82265;SDS011;71866;53.340;-6.308;2024-03-23T15:21:20;9.95;;;1.80;;
82265;SDS011;71866;53.340;-6.308;2024-03-23T15:23:45;8.47;;;1.70;;
82265;SDS011;71866;53.340;-6.308;2024-03-23T15:26:12;9.30;;;1.70;;
82265;SDS011;71866;53.340;-6.308;2024-03-23T15:28:37;8.87;;;1.67;;
82265;SDS011;71866;53.340;-6.308;2024-03-23T15:31:03;10.57;;;2.20;;